<?xml version="1.0" encoding="UTF-8" standalone="no" ?>
<gpx xmlns="http://www.topografix.com/GPX/1/1" xmlns:xsi="http://www.w3.org/2001/XMLSchema-instance" xsi:schemaLocation="http://www.topografix.com/GPX/1/1 http://www.topografix.com/GPX/1/1/gpx.xsd" version="1.1" creator="VisuGPX - https://www.visugpx.com">
  <metadata>
    <name>boucle de bonvillard</name>
    <desc><![CDATA[boucle de bonvillard - au départ d'Albertville]]></desc>
  </metadata>
  <trk>
    <name><![CDATA[20180904195649-Ziz3b]]></name>
    <trkseg>
      <trkpt lat="45.67648" lon="6.39335">
        <ele>349</ele>
        <time>2017-03-07T11:10:34Z</time>
      </trkpt>
      <trkpt lat="45.67307" lon="6.39215">
        <ele>349</ele>
        <time>2017-03-07T11:16:34Z</time>
      </trkpt>
      <trkpt lat="45.67465" lon="6.38786">
        <ele>343</ele>
        <time>2017-03-07T11:20:34Z</time>
      </trkpt>
      <trkpt lat="45.64841" lon="6.3304">
        <ele>327</ele>
        <time>2017-03-07T12:02:34Z</time>
      </trkpt>
      <trkpt lat="45.637" lon="6.31955">
        <ele>324</ele>
        <time>2017-03-07T12:18:34Z</time>
      </trkpt>
      <trkpt lat="45.62778" lon="6.30224">
        <ele>322</ele>
        <time>2017-03-07T12:34:34Z</time>
      </trkpt>
      <trkpt lat="45.62356" lon="6.28849">
        <ele>360</ele>
        <time>2017-03-07T12:44:34Z</time>
      </trkpt>
      <trkpt lat="45.61936" lon="6.28313">
        <ele>368</ele>
        <time>2017-03-07T12:50:34Z</time>
      </trkpt>
      <trkpt lat="45.61325" lon="6.27957">
        <ele>393</ele>
        <time>2017-03-07T13:02:34Z</time>
      </trkpt>
      <trkpt lat="45.6129" lon="6.27553">
        <ele>398</ele>
        <time>2017-03-07T13:06:34Z</time>
      </trkpt>
      <trkpt lat="45.60086" lon="6.25311">
        <ele>353</ele>
        <time>2017-03-07T13:50:34Z</time>
      </trkpt>
      <trkpt lat="45.58401" lon="6.21302">
        <ele>299</ele>
        <time>2017-03-07T14:34:34Z</time>
      </trkpt>
      <trkpt lat="45.58415" lon="6.20501">
        <ele>307</ele>
        <time>2017-03-07T14:46:34Z</time>
      </trkpt>
      <trkpt lat="45.58158" lon="6.20164">
        <ele>320</ele>
        <time>2017-03-07T14:54:34Z</time>
      </trkpt>
      <trkpt lat="45.57674" lon="6.18506">
        <ele>350</ele>
        <time>2017-03-07T15:12:34Z</time>
      </trkpt>
      <trkpt lat="45.57051" lon="6.17139">
        <ele>370</ele>
        <time>2017-03-07T15:24:34Z</time>
      </trkpt>
      <trkpt lat="45.56893" lon="6.15753">
        <ele>405</ele>
        <time>2017-03-07T15:30:34Z</time>
      </trkpt>
      <trkpt lat="45.57117" lon="6.17377">
        <ele>362</ele>
        <time>2017-03-07T15:36:34Z</time>
      </trkpt>
      <trkpt lat="45.57766" lon="6.18742">
        <ele>354</ele>
        <time>2017-03-07T15:52:34Z</time>
      </trkpt>
      <trkpt lat="45.57565" lon="6.191">
        <ele>312</ele>
        <time>2017-03-07T15:56:34Z</time>
      </trkpt>
      <trkpt lat="45.57417" lon="6.18924">
        <ele>301</ele>
        <time>2017-03-07T15:58:34Z</time>
      </trkpt>
      <trkpt lat="45.56118" lon="6.19954">
        <ele>292</ele>
        <time>2017-03-07T16:12:34Z</time>
      </trkpt>
      <trkpt lat="45.56214" lon="6.20596">
        <ele>296</ele>
        <time>2017-03-07T16:18:34Z</time>
      </trkpt>
      <trkpt lat="45.55843" lon="6.20465">
        <ele>289</ele>
        <time>2017-03-07T16:20:34Z</time>
      </trkpt>
      <trkpt lat="45.5515" lon="6.20877">
        <ele>291</ele>
        <time>2017-03-07T16:26:34Z</time>
      </trkpt>
      <trkpt lat="45.55213" lon="6.22565">
        <ele>293</ele>
        <time>2017-03-07T16:36:34Z</time>
      </trkpt>
      <trkpt lat="45.54872" lon="6.23986">
        <ele>298</ele>
        <time>2017-03-07T16:42:34Z</time>
      </trkpt>
      <trkpt lat="45.55081" lon="6.25226">
        <ele>307</ele>
        <time>2017-03-07T16:48:34Z</time>
      </trkpt>
      <trkpt lat="45.55564" lon="6.25623">
        <ele>307</ele>
        <time>2017-03-07T16:52:34Z</time>
      </trkpt>
      <trkpt lat="45.55875" lon="6.25102">
        <ele>302</ele>
        <time>2017-03-07T16:56:34Z</time>
      </trkpt>
      <trkpt lat="45.56531" lon="6.25258">
        <ele>301</ele>
        <time>2017-03-07T17:02:34Z</time>
      </trkpt>
      <trkpt lat="45.56943" lon="6.25718">
        <ele>299</ele>
        <time>2017-03-07T17:06:34Z</time>
      </trkpt>
      <trkpt lat="45.57299" lon="6.26533">
        <ele>305</ele>
        <time>2017-03-07T17:10:34Z</time>
      </trkpt>
      <trkpt lat="45.59012" lon="6.28252">
        <ele>299</ele>
        <time>2017-03-07T17:22:34Z</time>
      </trkpt>
      <trkpt lat="45.6002" lon="6.2987">
        <ele>302</ele>
        <time>2017-03-07T17:30:34Z</time>
      </trkpt>
      <trkpt lat="45.60174" lon="6.30385">
        <ele>310</ele>
        <time>2017-03-07T17:32:34Z</time>
      </trkpt>
      <trkpt lat="45.60339" lon="6.30466">
        <ele>312</ele>
        <time>2017-03-07T17:34:34Z</time>
      </trkpt>
      <trkpt lat="45.60491" lon="6.30942">
        <ele>321</ele>
        <time>2017-03-07T17:38:34Z</time>
      </trkpt>
      <trkpt lat="45.6118" lon="6.3167">
        <ele>331</ele>
        <time>2017-03-07T17:46:34Z</time>
      </trkpt>
      <trkpt lat="45.61449" lon="6.31741">
        <ele>324</ele>
        <time>2017-03-07T17:48:34Z</time>
      </trkpt>
      <trkpt lat="45.61599" lon="6.32719">
        <ele>332</ele>
        <time>2017-03-07T17:56:34Z</time>
      </trkpt>
      <trkpt lat="45.61837" lon="6.33253">
        <ele>324</ele>
        <time>2017-03-07T18:00:34Z</time>
      </trkpt>
      <trkpt lat="45.62183" lon="6.33539">
        <ele>330</ele>
        <time>2017-03-07T18:02:34Z</time>
      </trkpt>
      <trkpt lat="45.62384" lon="6.34002">
        <ele>330</ele>
        <time>2017-03-07T18:04:34Z</time>
      </trkpt>
      <trkpt lat="45.6326" lon="6.34633">
        <ele>322</ele>
        <time>2017-03-07T18:14:34Z</time>
      </trkpt>
      <trkpt lat="45.63352" lon="6.35148">
        <ele>320</ele>
        <time>2017-03-07T18:18:34Z</time>
      </trkpt>
      <trkpt lat="45.65789" lon="6.38629">
        <ele>345</ele>
        <time>2017-03-07T18:42:34Z</time>
      </trkpt>
      <trkpt lat="45.65891" lon="6.38547">
        <ele>334</ele>
        <time>2017-03-07T18:44:34Z</time>
      </trkpt>
      <trkpt lat="45.66145" lon="6.38798">
        <ele>335</ele>
        <time>2017-03-07T18:48:34Z</time>
      </trkpt>
      <trkpt lat="45.67649" lon="6.39336">
        <ele>349</ele>
        <time>2017-03-07T19:08:34Z</time>
      </trkpt>
    </trkseg>
  </trk>
</gpx>